Strona główna
METAR-TAF:

METAR-TAF

Lotnisko :

Port lotniczy Manila

Manila, Filipiny

Szerokość geograficzna: 14-31N, Długość geograficzna: 121-00E, wysokość: 14 m

Aktualna obserwacja pogody

Raport powstał 1 godzina i 14 minut temu, godzina 11:00 UTC
Wiatr 9 kt od wschód
Temperatura 27°C
Wilgotność 54%
Ciśnienie 1015 hPa
Widzialność 10 km lub więcej
Mało chmury na wysokości 3000 ft

METAR: RPLL 181100Z 09009KT 9999 FEW030 27/17 Q1015 NOSIG RMK A2997

czas: 20:14 (12:14 UTC)

Prognoza

Raport powstał 1 godzina i 14 minut temu, godzina 11:00 UTC
Prognoza ważna od 18 godzina 12 UTC do 19 godzina 18 UTC
Wiatr 8 kt od wschód
Widzialność 10 km lub więcej
Mało chmury na wysokości 2500 ft
Przejściowo
od 19 godzina 03 UTC do 19 godzina 09 UTC
Wiatr 18 kt od wschodnio-południowy wschód
Rozproszone chmury na wysokości 2500 ft

TAF: RPLL 181100Z 1812/1918 10008KT 9999 FEW025 TX32/1906Z TN24/1822Z TEMPO 1903/1909 11018KT SCT025

Obserwacja i prognoza pogody dla ponad 4000 lotnisk (raport METAR i TAF).

Dostępne stacje oznaczono żółtymi i czerwonymi punktami na mapie.

Najedź kursorem aby zobaczyć nazwę stacji.

Kliknij aby zobaczyć obserwacje i prognozy pogody.

Aby zmienić mapę: kliknij na zielony przycisk z czarnym krzyżykiem, aby powiększyć; na zielony przycisk z myślnikiem, aby pomniejszyć; na zielone strzałki, aby przejść do map sąsiednich.


METAR-TAF: